Time;durP1;ratioP1;P1;durP2;ratioP2;P2;SDS_P1;SDS_P2;PMS_P1;PMS_P2;Temp;Humidity;BMP_temperature;BMP_pressure;BME280_temperature;BME280_humidity;BME280_pressure;Samples;Min_cycle;Max_cycle;Signal;HPM_P1;HPM_P2
2023/07/20 00:00:42;;;;;;;0.98;0.95;;;18.40;99.50;;;;;;5050269;28;20214;-65
2023/07/20 00:03:16;;;;;;;1.48;1.10;;;18.40;99.50;;;;;;5049373;28;20607;-65
2023/07/20 00:05:44;;;;;;;1.45;1.17;;;18.40;99.50;;;;;;5032255;28;20205;-64
2023/07/20 00:08:12;;;;;;;2.15;1.02;;;18.40;99.50;;;;;;5050201;28;20285;-64
2023/07/20 00:10:40;;;;;;;3.35;1.30;;;18.40;99.50;;;;;;5032259;28;20198;-64
2023/07/20 00:13:07;;;;;;;1.27;1.10;;;18.40;99.50;;;;;;5050100;28;20197;-64
2023/07/20 00:15:35;;;;;;;1.10;1.00;;;18.40;99.50;;;;;;5050024;28;20285;-64
2023/07/20 00:18:02;;;;;;;0.90;0.90;;;18.40;99.50;;;;;;5031004;28;20198;-64
2023/07/20 00:20:29;;;;;;;1.75;0.90;;;18.40;99.60;;;;;;5047093;28;20671;-64
2023/07/20 00:22:57;;;;;;;0.75;0.75;;;18.30;99.60;;;;;;5048147;28;20268;-64
2023/07/20 00:25:26;;;;;;;0.90;0.90;;;18.30;99.60;;;;;;5050805;28;20250;-64
2023/07/20 00:27:53;;;;;;;0.80;0.80;;;18.30;99.80;;;;;;5032505;28;20198;-64
2023/07/20 00:30:21;;;;;;;0.55;0.55;;;18.30;99.70;;;;;;5036975;28;20209;-63
2023/07/20 00:32:48;;;;;;;0.65;0.65;;;18.20;99.70;;;;;;5048233;28;20317;-64
2023/07/20 00:35:16;;;;;;;0.90;0.90;;;18.20;99.80;;;;;;5034499;28;20253;-65
2023/07/20 00:37:43;;;;;;;1.25;0.90;;;18.20;99.80;;;;;;5021044;28;20300;-65
2023/07/20 00:40:11;;;;;;;2.10;0.65;;;18.20;99.80;;;;;;5032999;28;20700;-65
2023/07/20 00:42:39;;;;;;;1.17;1.08;;;18.20;99.80;;;;;;5050292;28;20190;-65
2023/07/20 00:45:08;;;;;;;1.33;0.95;;;18.20;99.80;;;;;;5042217;28;20220;-64
2023/07/20 00:47:35;;;;;;;1.20;1.17;;;18.20;99.90;;;;;;5043594;28;20202;-65
2023/07/20 00:50:03;;;;;;;1.17;0.90;;;18.10;99.80;;;;;;5047511;28;20204;-64
2023/07/20 00:52:33;;;;;;;1.77;1.00;;;18.20;99.90;;;;;;5040268;28;20299;-64
2023/07/20 00:55:00;;;;;;;1.00;1.00;;;18.20;99.90;;;;;;5036145;28;20229;-65
2023/07/20 00:57:28;;;;;;;0.73;0.73;;;18.20;99.90;;;;;;5050101;28;20565;-64
2023/07/20 00:59:56;;;;;;;0.80;0.80;;;18.20;99.90;;;;;;5046911;28;20225;-65
2023/07/20 01:02:24;;;;;;;1.05;0.80;;;18.20;99.90;;;;;;5049225;28;20559;-65
2023/07/20 01:04:52;;;;;;;0.93;0.90;;;18.20;99.90;;;;;;5048131;28;20201;-65
2023/07/20 01:07:26;;;;;;;0.90;0.90;;;18.10;99.90;;;;;;5031473;28;20194;-64
2023/07/20 01:10:00;;;;;;;1.65;1.10;;;18.10;99.90;;;;;;5046271;28;20190;-64
2023/07/20 01:12:36;;;;;;;1.10;1.00;;;18.10;99.90;;;;;;5047881;28;20189;-64
2023/07/20 01:15:07;;;;;;;0.90;0.90;;;18.10;99.90;;;;;;5049378;28;20258;-64
2023/07/20 01:17:35;;;;;;;1.15;0.70;;;18.20;99.90;;;;;;5049284;28;20216;-63
2023/07/20 01:20:02;;;;;;;0.70;0.70;;;18.10;99.90;;;;;;5044837;28;20202;-63
2023/07/20 01:22:48;;;;;;;0.98;0.98;;;18.10;99.90;;;;;;5025553;28;20201;-63
2023/07/20 01:25:35;;;;;;;0.60;0.60;;;18.10;99.90;;;;;;5041387;28;20204;-64
2023/07/20 01:28:35;;;;;;;0.70;0.70;;;18.10;99.90;;;;;;5049767;28;20342;-64
2023/07/20 01:31:25;;;;;;;1.27;1.17;;;18.00;99.90;;;;;;5006355;28;20220;-64
2023/07/20 01:33:55;;;;;;;0.73;0.73;;;18.10;99.90;;;;;;5030774;28;20649;-63
2023/07/20 01:36:25;;;;;;;0.80;0.80;;;18.10;99.90;;;;;;5047839;28;20193;-64
2023/07/20 01:38:53;;;;;;;0.90;0.90;;;18.10;99.90;;;;;;5049568;28;20201;-64
2023/07/20 01:41:21;;;;;;;0.80;0.80;;;18.10;99.90;;;;;;5049053;28;20214;-63
2023/07/20 01:43:48;;;;;;;0.75;0.75;;;18.20;99.90;;;;;;5049523;28;20204;-65
2023/07/20 01:46:18;;;;;;;1.75;0.93;;;18.10;99.90;;;;;;5049519;28;20226;-64
2023/07/20 01:48:46;;;;;;;0.70;0.70;;;18.10;99.90;;;;;;5047705;28;20219;-64
2023/07/20 01:51:13;;;;;;;0.60;0.60;;;18.10;99.90;;;;;;5045963;28;20193;-64
2023/07/20 01:53:40;;;;;;;1.25;0.73;;;18.00;99.90;;;;;;5044009;28;20534;-64
2023/07/20 01:56:07;;;;;;;0.43;0.43;;;18.00;99.90;;;;;;5049169;28;20557;-64
2023/07/20 01:58:36;;;;;;;0.70;0.70;;;18.00;99.90;;;;;;5024342;28;20213;-64
2023/07/20 02:01:03;;;;;;;1.15;0.80;;;18.00;99.90;;;;;;5039630;28;20577;-64
2023/07/20 02:03:32;;;;;;;0.63;0.63;;;18.00;99.90;;;;;;5030698;28;20224;-64
2023/07/20 02:05:59;;;;;;;0.77;0.77;;;18.00;99.90;;;;;;5047611;28;20190;-64
2023/07/20 02:08:26;;;;;;;1.90;0.80;;;18.00;99.90;;;;;;5049178;28;20198;-65
2023/07/20 02:10:56;;;;;;;0.80;0.80;;;18.10;99.90;;;;;;5030536;28;20225;-65
2023/07/20 02:13:23;;;;;;;0.85;0.70;;;18.00;99.90;;;;;;5052926;28;20293;-65
2023/07/20 02:15:51;;;;;;;0.70;0.70;;;18.00;99.90;;;;;;5052274;28;20201;-64
2023/07/20 02:18:18;;;;;;;0.75;0.60;;;18.00;99.90;;;;;;5037456;28;20208;-65
2023/07/20 02:20:46;;;;;;;0.70;0.70;;;17.90;99.90;;;;;;5046260;28;20237;-65
2023/07/20 02:23:14;;;;;;;0.63;0.63;;;18.00;99.90;;;;;;5045112;28;20217;-63
2023/07/20 02:25:41;;;;;;;0.70;0.70;;;18.00;99.90;;;;;;5041273;28;20208;-65
2023/07/20 02:28:09;;;;;;;0.68;0.68;;;18.00;99.90;;;;;;5051030;28;20367;-64
2023/07/20 02:30:39;;;;;;;0.77;0.77;;;18.00;99.90;;;;;;5034335;28;20611;-65
2023/07/20 02:33:06;;;;;;;0.65;0.65;;;18.00;99.90;;;;;;5029915;28;20604;-66
2023/07/20 02:35:33;;;;;;;0.80;0.80;;;18.00;99.90;;;;;;5031493;28;20835;-65
2023/07/20 02:38:03;;;;;;;0.60;0.50;;;18.00;99.90;;;;;;5036100;28;20266;-65
2023/07/20 02:40:30;;;;;;;0.90;0.60;;;18.00;99.90;;;;;;5051965;28;20218;-65
2023/07/20 02:42:57;;;;;;;0.55;0.40;;;18.00;99.90;;;;;;5039310;28;20874;-65
2023/07/20 02:45:24;;;;;;;0.80;0.80;;;18.00;99.90;;;;;;5052443;28;20213;-66
2023/07/20 02:47:51;;;;;;;0.88;0.88;;;18.10;99.90;;;;;;5051534;28;20265;-65
2023/07/20 02:50:19;;;;;;;0.70;0.70;;;18.10;99.90;;;;;;5049035;28;20287;-66
2023/07/20 02:52:46;;;;;;;0.68;0.68;;;18.10;99.90;;;;;;5051160;28;20731;-66
2023/07/20 02:55:14;;;;;;;0.80;0.80;;;18.10;99.90;;;;;;5051978;28;20221;-66
2023/07/20 02:57:42;;;;;;;0.60;0.50;;;18.20;99.90;;;;;;5048282;28;20205;-66
2023/07/20 03:00:11;;;;;;;0.90;0.90;;;18.20;99.90;;;;;;5049294;28;20372;-66
2023/07/20 03:02:38;;;;;;;1.25;0.70;;;18.20;99.90;;;;;;5032860;28;20611;-65
2023/07/20 03:05:07;;;;;;;0.60;0.60;;;18.20;99.90;;;;;;5048983;28;20216;-65
2023/07/20 03:07:34;;;;;;;0.68;0.68;;;18.20;99.90;;;;;;5043031;28;20206;-65
2023/07/20 03:10:01;;;;;;;0.60;0.60;;;18.30;99.90;;;;;;5035452;28;20205;-65
2023/07/20 03:12:30;;;;;;;0.80;0.80;;;18.30;99.90;;;;;;5052227;28;20197;-65
2023/07/20 03:14:57;;;;;;;0.65;0.65;;;18.20;99.90;;;;;;5032676;28;20539;-66
2023/07/20 03:17:25;;;;;;;0.70;0.70;;;18.30;99.90;;;;;;5050508;28;20194;-65
2023/07/20 03:19:52;;;;;;;0.80;0.80;;;18.20;99.90;;;;;;5032728;28;20209;-64
2023/07/20 03:22:19;;;;;;;1.48;0.88;;;18.20;99.90;;;;;;5049214;28;20259;-64
2023/07/20 03:24:46;;;;;;;2.15;0.88;;;18.30;99.90;;;;;;5051015;28;20205;-65
2023/07/20 03:27:14;;;;;;;1.65;0.60;;;18.30;99.90;;;;;;5032650;28;20555;-66
2023/07/20 03:29:44;;;;;;;0.57;0.57;;;18.40;99.90;;;;;;5051218;28;20210;-66
2023/07/20 03:32:11;;;;;;;0.68;0.68;;;18.30;99.90;;;;;;5032652;28;20324;-66
2023/07/20 03:34:39;;;;;;;0.65;0.65;;;18.30;99.90;;;;;;5039742;28;20206;-65
2023/07/20 03:37:06;;;;;;;0.70;0.70;;;18.30;99.90;;;;;;5032858;28;20584;-64
2023/07/20 03:39:33;;;;;;;0.55;0.50;;;18.30;99.90;;;;;;5051005;28;20209;-65
2023/07/20 03:42:00;;;;;;;0.90;0.90;;;18.40;99.90;;;;;;5051525;28;20220;-65
2023/07/20 03:44:29;;;;;;;1.00;0.70;;;18.40;99.90;;;;;;5035363;28;20301;-64
2023/07/20 03:46:57;;;;;;;0.65;0.65;;;18.40;99.90;;;;;;5031782;28;20262;-64
2023/07/20 03:49:25;;;;;;;0.50;0.50;;;18.40;99.90;;;;;;5050092;28;20232;-63
2023/07/20 03:51:52;;;;;;;0.50;0.50;;;18.40;99.90;;;;;;5032133;28;20197;-64
2023/07/20 03:54:19;;;;;;;0.70;0.70;;;18.50;99.90;;;;;;5051008;28;20194;-64
2023/07/20 03:56:46;;;;;;;0.60;0.60;;;18.50;99.90;;;;;;5051205;28;20205;-65
2023/07/20 03:59:14;;;;;;;0.60;0.60;;;18.50;99.90;;;;;;5034741;28;20684;-65
2023/07/20 04:01:41;;;;;;;0.60;0.60;;;18.50;99.90;;;;;;5051007;28;20271;-65
2023/07/20 04:04:09;;;;;;;0.50;0.50;;;18.50;99.90;;;;;;5027204;28;20229;-65
2023/07/20 04:06:37;;;;;;;0.60;0.60;;;18.50;99.90;;;;;;5023632;28;20198;-65
2023/07/20 04:09:05;;;;;;;0.70;0.70;;;18.50;99.90;;;;;;5050749;28;20208;-65
2023/07/20 04:11:33;;;;;;;0.60;0.60;;;18.50;99.90;;;;;;5050953;28;20309;-66
2023/07/20 04:14:00;;;;;;;1.20;0.80;;;18.60;99.90;;;;;;5050796;28;20308;-66
2023/07/20 04:16:27;;;;;;;0.60;0.60;;;18.50;99.90;;;;;;5050381;28;20248;-66
2023/07/20 04:18:56;;;;;;;0.63;0.60;;;18.60;99.90;;;;;;5048191;28;20268;-65
2023/07/20 04:21:29;;;;;;;0.65;0.65;;;18.60;99.90;;;;;;5031469;28;20287;-65
2023/07/20 04:23:56;;;;;;;0.70;0.70;;;18.60;99.90;;;;;;5031502;28;20673;-64
2023/07/20 04:26:25;;;;;;;0.57;0.57;;;18.70;99.90;;;;;;5047820;28;20202;-65
2023/07/20 04:28:52;;;;;;;0.60;0.60;;;18.70;99.90;;;;;;5030875;28;20237;-63
2023/07/20 04:31:34;;;;;;;0.50;0.50;;;18.70;99.90;;;;;;5039466;28;20193;-64
2023/07/20 04:34:01;;;;;;;0.63;0.63;;;18.70;99.90;;;;;;5030638;28;20634;-64
2023/07/20 04:36:30;;;;;;;0.60;0.60;;;18.70;99.90;;;;;;5035006;28;20232;-64
2023/07/20 04:38:57;;;;;;;0.73;0.60;;;18.70;99.90;;;;;;5031941;28;20201;-64
2023/07/20 04:41:25;;;;;;;0.52;0.52;;;18.70;99.90;;;;;;5036118;28;20221;-64
2023/07/20 04:43:55;;;;;;;1.52;0.90;;;18.70;99.90;;;;;;5032305;28;20205;-64
2023/07/20 04:46:30;;;;;;;0.50;0.50;;;18.70;99.90;;;;;;5035677;28;20201;-66
2023/07/20 04:48:58;;;;;;;0.98;0.85;;;18.70;99.90;;;;;;5029908;28;20210;-66
2023/07/20 04:51:30;;;;;;;0.60;0.60;;;18.70;99.90;;;;;;5029856;28;20198;-66
2023/07/20 04:53:59;;;;;;;0.68;0.60;;;18.80;99.90;;;;;;5031974;28;20255;-65
2023/07/20 04:56:29;;;;;;;1.05;0.70;;;18.70;99.90;;;;;;5038517;28;20204;-65
2023/07/20 04:58:58;;;;;;;0.70;0.70;;;18.70;99.90;;;;;;5045545;28;20217;-65
2023/07/20 05:01:26;;;;;;;0.93;0.60;;;18.70;99.90;;;;;;5050003;28;20263;-65
2023/07/20 05:03:53;;;;;;;0.70;0.70;;;18.70;99.90;;;;;;5031170;28;20612;-65
2023/07/20 05:06:21;;;;;;;0.85;0.63;;;18.70;99.90;;;;;;5035309;28;20296;-65
2023/07/20 05:08:48;;;;;;;0.70;0.70;;;18.80;99.90;;;;;;5031340;28;20677;-66
2023/07/20 05:11:17;;;;;;;0.60;0.60;;;18.80;99.90;;;;;;5029573;28;20251;-65
2023/07/20 05:13:44;;;;;;;0.60;0.60;;;18.80;99.90;;;;;;5031675;28;20267;-65
2023/07/20 05:16:12;;;;;;;0.70;0.70;;;18.70;99.90;;;;;;5029302;28;20213;-66
2023/07/20 05:18:39;;;;;;;0.75;0.75;;;18.80;99.90;;;;;;5030796;28;20205;-65
2023/07/20 05:21:07;;;;;;;1.00;0.60;;;18.80;99.90;;;;;;5028589;28;20353;-65
2023/07/20 05:23:35;;;;;;;1.08;0.60;;;18.70;99.90;;;;;;5032731;28;20597;-66
2023/07/20 05:26:02;;;;;;;1.48;0.60;;;18.70;99.90;;;;;;5029735;28;20693;-66
2023/07/20 05:28:31;;;;;;;0.70;0.70;;;18.80;99.90;;;;;;5049597;28;20533;-65
2023/07/20 05:30:59;;;;;;;1.98;0.93;;;18.80;99.90;;;;;;5031420;28;20201;-66
2023/07/20 05:33:26;;;;;;;0.80;0.80;;;18.80;99.90;;;;;;5048786;28;20206;-66
2023/07/20 05:35:53;;;;;;;0.70;0.70;;;18.90;99.90;;;;;;5048251;28;20194;-66
2023/07/20 05:38:20;;;;;;;1.10;0.70;;;18.90;99.90;;;;;;5049616;28;20205;-66
2023/07/20 05:40:47;;;;;;;0.70;0.70;;;18.90;99.90;;;;;;5048469;28;20561;-66
2023/07/20 05:43:15;;;;;;;0.52;0.52;;;18.90;99.90;;;;;;5049450;28;20193;-65
2023/07/20 05:45:45;;;;;;;1.23;0.77;;;18.90;99.90;;;;;;5050348;28;20669;-64
2023/07/20 05:48:13;;;;;;;0.85;0.68;;;18.90;99.90;;;;;;5053026;28;20190;-65
2023/07/20 05:50:44;;;;;;;0.60;0.60;;;19.00;99.90;;;;;;5051311;28;20197;-66
2023/07/20 05:53:11;;;;;;;0.70;0.70;;;18.90;99.90;;;;;;5052834;28;20205;-66
2023/07/20 05:55:39;;;;;;;0.70;0.70;;;18.90;99.90;;;;;;5053011;28;20288;-66
2023/07/20 05:58:06;;;;;;;0.95;0.70;;;19.00;99.90;;;;;;5053232;28;20274;-65
2023/07/20 06:00:33;;;;;;;0.95;0.68;;;18.90;99.90;;;;;;5034840;28;20212;-65
2023/07/20 06:03:01;;;;;;;0.60;0.60;;;18.90;99.90;;;;;;5036390;28;20221;-66
2023/07/20 06:05:30;;;;;;;0.70;0.70;;;19.00;99.90;;;;;;5049121;28;20634;-65
2023/07/20 06:07:58;;;;;;;0.82;0.82;;;19.00;99.90;;;;;;5041221;28;20190;-63
2023/07/20 06:10:25;;;;;;;1.20;0.85;;;19.00;99.90;;;;;;5034699;28;20432;-63
2023/07/20 06:12:52;;;;;;;0.70;0.70;;;19.10;99.90;;;;;;5049677;28;20661;-63
2023/07/20 06:15:27;;;;;;;1.27;0.90;;;19.10;99.90;;;;;;5033279;28;20772;-64
2023/07/20 06:17:55;;;;;;;1.13;1.00;;;19.10;99.90;;;;;;5041760;28;20193;-64
2023/07/20 06:20:24;;;;;;;0.70;0.70;;;19.10;99.90;;;;;;5048329;28;20205;-64
2023/07/20 06:22:51;;;;;;;0.95;0.80;;;19.10;99.90;;;;;;5041796;28;20265;-64
2023/07/20 06:25:20;;;;;;;1.27;0.70;;;19.10;99.90;;;;;;5048196;28;20197;-63
2023/07/20 06:27:47;;;;;;;0.80;0.80;;;19.10;99.90;;;;;;5051430;28;20201;-63
2023/07/20 06:30:14;;;;;;;0.70;0.70;;;19.10;99.90;;;;;;5051667;28;20692;-64
2023/07/20 06:32:41;;;;;;;0.60;0.60;;;19.00;99.90;;;;;;5037409;28;20759;-64
2023/07/20 06:35:09;;;;;;;0.80;0.80;;;19.10;99.90;;;;;;5033093;28;20232;-64
2023/07/20 06:37:38;;;;;;;3.42;0.82;;;19.10;99.90;;;;;;5050531;28;20202;-64
2023/07/20 06:40:06;;;;;;;0.70;0.70;;;19.10;99.90;;;;;;5050032;28;20569;-63
2023/07/20 06:42:33;;;;;;;0.75;0.68;;;19.10;99.90;;;;;;5050224;28;20201;-63
2023/07/20 06:45:00;;;;;;;0.70;0.70;;;19.10;99.90;;;;;;5051353;28;20617;-62
2023/07/20 06:47:27;;;;;;;0.68;0.68;;;19.10;99.90;;;;;;5050459;28;20197;-64
2023/07/20 06:49:55;;;;;;;0.63;0.63;;;19.10;99.90;;;;;;5041182;28;20202;-64
2023/07/20 06:52:22;;;;;;;3.72;0.60;;;19.10;99.90;;;;;;5050184;28;20688;-64
2023/07/20 06:54:51;;;;;;;0.60;0.60;;;19.10;99.90;;;;;;5049668;28;20585;-65
2023/07/20 06:57:18;;;;;;;1.38;0.80;;;19.10;99.90;;;;;;5049998;28;20256;-64
2023/07/20 06:59:45;;;;;;;2.65;0.85;;;19.20;99.90;;;;;;5034523;28;20205;-63
2023/07/20 07:02:12;;;;;;;0.90;0.90;;;19.20;99.90;;;;;;5048823;28;20210;-63
2023/07/20 07:04:39;;;;;;;0.60;0.60;;;19.20;99.90;;;;;;5050234;28;20511;-64
2023/07/20 07:07:06;;;;;;;0.70;0.70;;;19.20;99.90;;;;;;5048171;28;20210;-63
2023/07/20 07:09:34;;;;;;;0.70;0.70;;;19.20;99.90;;;;;;5049309;28;20481;-64
2023/07/20 07:12:02;;;;;;;0.73;0.73;;;19.20;99.90;;;;;;5032281;28;20198;-64
2023/07/20 07:14:29;;;;;;;0.60;0.60;;;19.20;99.90;;;;;;5050215;28;20182;-64
2023/07/20 07:16:56;;;;;;;0.82;0.68;;;19.20;99.90;;;;;;5048394;28;20688;-64
2023/07/20 07:19:24;;;;;;;0.52;0.52;;;19.20;99.90;;;;;;5048392;28;20206;-64
2023/07/20 07:21:51;;;;;;;0.55;0.55;;;19.20;99.90;;;;;;5049342;28;20217;-64
2023/07/20 07:24:18;;;;;;;0.63;0.63;;;19.10;99.90;;;;;;5048602;28;20201;-64
2023/07/20 07:26:45;;;;;;;1.00;0.80;;;19.10;99.90;;;;;;5050598;28;20553;-64
2023/07/20 07:29:14;;;;;;;0.98;0.90;;;19.00;99.90;;;;;;5049384;28;20198;-65
2023/07/20 07:31:41;;;;;;;0.88;0.80;;;19.00;99.90;;;;;;5046877;28;20182;-64
2023/07/20 07:34:08;;;;;;;0.47;0.47;;;19.00;99.90;;;;;;5048462;28;20213;-63
2023/07/20 07:36:35;;;;;;;1.00;1.00;;;19.00;99.90;;;;;;5036255;28;20194;-63
2023/07/20 07:39:02;;;;;;;0.73;0.73;;;19.10;99.90;;;;;;5047722;28;20211;-63
2023/07/20 07:41:30;;;;;;;0.80;0.80;;;19.10;99.90;;;;;;5049630;28;20213;-63
2023/07/20 07:43:57;;;;;;;0.73;0.73;;;19.10;99.90;;;;;;5048587;28;20190;-63
2023/07/20 07:46:25;;;;;;;0.70;0.70;;;19.20;99.90;;;;;;5032537;28;20209;-63
2023/07/20 07:48:53;;;;;;;0.95;0.75;;;19.30;99.90;;;;;;5048407;28;20582;-64
2023/07/20 07:51:20;;;;;;;0.73;0.60;;;19.30;99.90;;;;;;5051014;28;20198;-64
2023/07/20 07:53:49;;;;;;;0.85;0.85;;;19.20;99.90;;;;;;5048958;28;20557;-64
2023/07/20 07:56:16;;;;;;;1.27;0.70;;;19.20;99.90;;;;;;5033745;28;20252;-64
2023/07/20 07:58:43;;;;;;;0.68;0.68;;;19.20;99.90;;;;;;5049362;28;20373;-64
2023/07/20 08:01:10;;;;;;;0.70;0.70;;;19.20;99.90;;;;;;5049095;28;20209;-64
2023/07/20 08:03:39;;;;;;;0.90;0.60;;;19.30;99.90;;;;;;5048401;28;20205;-64
2023/07/20 08:06:06;;;;;;;0.77;0.70;;;19.30;99.90;;;;;;5048476;28;20209;-64
2023/07/20 08:08:34;;;;;;;0.90;0.90;;;19.40;99.90;;;;;;5048585;28;20202;-64
2023/07/20 08:11:01;;;;;;;0.82;0.82;;;19.50;99.90;;;;;;5048222;28;20202;-64
2023/07/20 08:13:28;;;;;;;0.70;0.70;;;19.60;99.90;;;;;;5029158;28;20507;-64
2023/07/20 08:15:55;;;;;;;0.95;0.80;;;19.70;99.90;;;;;;5047288;28;20194;-63
2023/07/20 08:18:22;;;;;;;0.80;0.80;;;19.90;99.90;;;;;;5020964;28;20264;-64
2023/07/20 08:20:51;;;;;;;0.85;0.85;;;20.00;99.90;;;;;;5047238;28;20201;-68
2023/07/20 08:23:18;;;;;;;0.82;0.82;;;20.10;99.90;;;;;;5046494;28;20210;-68
2023/07/20 08:25:45;;;;;;;0.93;0.93;;;20.20;99.90;;;;;;5049024;28;20201;-70
2023/07/20 08:28:13;;;;;;;3.58;0.95;;;20.30;99.90;;;;;;5048948;28;20216;-68
2023/07/20 08:30:49;;;;;;;1.30;0.85;;;20.50;99.90;;;;;;5075893;27;1812423;-67
2023/07/20 08:33:19;;;;;;;1.20;0.90;;;20.60;99.90;;;;;;5122376;28;20187;-67
2023/07/20 08:35:47;;;;;;;1.15;0.90;;;20.80;99.90;;;;;;5126212;28;20244;-68
2023/07/20 08:38:14;;;;;;;13.02;1.58;;;20.90;99.80;;;;;;5125961;28;20282;-67
2023/07/20 08:40:43;;;;;;;1.98;0.75;;;21.00;99.60;;;;;;5119398;28;20202;-70
2023/07/20 08:43:11;;;;;;;0.60;0.60;;;21.00;99.50;;;;;;5106444;28;20228;-68
2023/07/20 08:45:40;;;;;;;1.13;0.60;;;21.00;99.30;;;;;;5123520;28;20701;-68
2023/07/20 08:48:10;;;;;;;0.55;0.55;;;21.10;99.30;;;;;;5122585;28;20191;-68
2023/07/20 08:50:37;;;;;;;1.77;0.60;;;21.20;99.10;;;;;;5098275;28;20260;-68
2023/07/20 08:53:04;;;;;;;0.52;0.52;;;21.30;98.60;;;;;;5123706;28;20244;-69
2023/07/20 08:55:32;;;;;;;0.60;0.60;;;21.30;98.40;;;;;;5120320;28;20195;-69
2023/07/20 08:58:01;;;;;;;0.57;0.57;;;21.30;97.90;;;;;;5124514;28;20203;-69
2023/07/20 09:00:29;;;;;;;0.57;0.57;;;21.30;97.80;;;;;;5112585;28;20569;-68
2023/07/20 09:02:56;;;;;;;0.50;0.50;;;21.20;97.70;;;;;;5125408;28;20200;-69
2023/07/20 09:05:28;;;;;;;0.70;0.60;;;21.20;97.50;;;;;;5122041;28;20274;-69
2023/07/20 09:07:55;;;;;;;0.60;0.60;;;21.20;97.40;;;;;;5121898;28;20270;-68
2023/07/20 09:10:24;;;;;;;0.75;0.60;;;21.20;97.40;;;;;;5122178;28;20221;-68
2023/07/20 09:12:51;;;;;;;1.75;0.60;;;21.10;97.30;;;;;;5118462;28;20196;-68
2023/07/20 09:15:20;;;;;;;1.13;0.63;;;21.10;97.20;;;;;;5117418;28;20202;-69
2023/07/20 09:17:48;;;;;;;0.50;0.50;;;21.10;97.10;;;;;;5123470;28;20199;-68
2023/07/20 09:20:16;;;;;;;0.47;0.47;;;21.10;96.90;;;;;;5123839;28;20203;-69
2023/07/20 09:22:45;;;;;;;0.52;0.52;;;21.10;96.70;;;;;;5106904;28;20298;-70
2023/07/20 09:25:14;;;;;;;0.47;0.47;;;21.10;96.60;;;;;;5102800;28;20195;-68
2023/07/20 09:27:42;;;;;;;0.60;0.60;;;21.10;96.40;;;;;;5107395;28;20646;-68
2023/07/20 09:30:13;;;;;;;0.75;0.60;;;21.10;96.00;;;;;;5104938;28;20689;-69
2023/07/20 09:32:41;;;;;;;0.77;0.70;;;21.20;96.10;;;;;;5125216;28;20187;-69
2023/07/20 09:35:14;;;;;;;0.70;0.70;;;21.40;95.90;;;;;;5123064;28;20195;-69
2023/07/20 09:37:41;;;;;;;0.63;0.50;;;21.50;95.60;;;;;;5125067;28;20195;-69
2023/07/20 09:40:10;;;;;;;0.57;0.57;;;21.60;95.40;;;;;;5122531;28;20202;-69
2023/07/20 09:42:38;;;;;;;0.70;0.70;;;21.60;95.20;;;;;;5111657;28;20669;-69
2023/07/20 09:45:09;;;;;;;0.50;0.50;;;21.60;94.50;;;;;;5103432;28;20865;-69
2023/07/20 09:47:37;;;;;;;0.60;0.60;;;21.60;94.40;;;;;;5110487;28;20207;-69
2023/07/20 09:50:10;;;;;;;0.60;0.60;;;21.70;94.00;;;;;;5106765;28;20215;-69
2023/07/20 09:52:40;;;;;;;0.70;0.70;;;21.80;93.90;;;;;;5107959;28;20210;-69
2023/07/20 09:55:08;;;;;;;0.50;0.50;;;21.80;93.70;;;;;;5107908;28;20200;-69
2023/07/20 09:57:37;;;;;;;0.50;0.50;;;21.90;93.60;;;;;;5111044;28;20196;-70
2023/07/20 10:00:12;;;;;;;0.50;0.50;;;21.90;93.30;;;;;;5107682;28;20732;-69
2023/07/20 10:02:44;;;;;;;0.60;0.60;;;21.80;92.60;;;;;;5091787;28;20199;-69
2023/07/20 10:05:14;;;;;;;0.70;0.70;;;21.70;92.50;;;;;;5108602;28;20195;-68
2023/07/20 10:07:46;;;;;;;0.63;0.63;;;21.60;93.00;;;;;;5109771;28;20227;-69
2023/07/20 10:10:16;;;;;;;0.80;0.68;;;21.50;92.50;;;;;;5092568;28;20559;-70
2023/07/20 10:12:50;;;;;;;3.30;0.90;;;21.40;92.50;;;;;;5093120;28;20231;-69
2023/07/20 10:15:21;;;;;;;0.50;0.50;;;21.30;92.70;;;;;;5109883;28;20188;-69
2023/07/20 10:18:09;;;;;;;0.75;0.75;;;21.30;93.00;;;;;;5109059;28;20196;-68
2023/07/20 10:20:41;;;;;;;1.88;0.80;;;21.10;93.50;;;;;;5108281;28;20601;-69
2023/07/20 10:23:08;;;;;;;0.68;0.68;;;21.10;94.10;;;;;;5109472;28;20200;-69
2023/07/20 10:25:38;;;;;;;0.60;0.60;;;21.10;94.50;;;;;;5111575;28;20234;-69
2023/07/20 10:28:07;;;;;;;2.50;0.80;;;21.20;94.70;;;;;;5111727;28;20245;-69
2023/07/20 10:30:35;;;;;;;0.75;0.60;;;21.20;95.30;;;;;;5112049;28;20227;-69
2023/07/20 10:33:03;;;;;;;0.70;0.70;;;21.20;95.40;;;;;;5086462;28;20211;-69
2023/07/20 10:35:31;;;;;;;0.57;0.57;;;21.20;95.20;;;;;;5102111;28;20223;-70
2023/07/20 10:38:02;;;;;;;2.60;0.60;;;21.20;95.20;;;;;;5092075;28;20264;-68
2023/07/20 10:40:34;;;;;;;0.70;0.70;;;21.20;95.50;;;;;;5111650;28;20597;-68
2023/07/20 10:43:03;;;;;;;0.82;0.70;;;21.20;95.10;;;;;;5093166;28;20207;-69
2023/07/20 10:45:41;;;;;;;0.52;0.43;;;21.20;95.10;;;;;;5112322;28;20276;-69
2023/07/20 10:48:15;;;;;;;1.65;0.90;;;21.10;95.10;;;;;;5092455;28;20322;-70
2023/07/20 10:50:43;;;;;;;0.90;0.90;;;21.10;95.10;;;;;;5110603;28;20206;-69
2023/07/20 10:53:18;;;;;;;1.20;0.70;;;21.00;95.00;;;;;;5106861;28;20278;-68
2023/07/20 10:55:46;;;;;;;0.98;0.90;;;21.00;94.70;;;;;;5110961;28;20195;-69
2023/07/20 10:58:15;;;;;;;1.30;0.70;;;21.00;94.30;;;;;;5111920;28;20223;-69
2023/07/20 11:01:04;;;;;;;0.68;0.68;;;20.90;94.20;;;;;;5111779;28;20241;-69
2023/07/20 11:03:32;;;;;;;1.00;1.00;;;20.90;94.30;;;;;;5103722;28;20203;-69
2023/07/20 11:06:00;;;;;;;1.15;1.05;;;20.90;94.40;;;;;;5109993;28;20195;-69
2023/07/20 11:08:41;;;;;;;1.10;1.10;;;20.90;94.40;;;;;;5111871;28;20601;-69
2023/07/20 11:11:24;;;;;;;3.45;1.40;;;20.90;94.40;;;;;;5107005;28;20414;-69
2023/07/20 11:13:56;;;;;;;1.10;1.00;;;21.00;94.60;;;;;;5111103;28;20219;-69
2023/07/20 11:16:41;;;;;;;1.10;1.10;;;21.00;94.60;;;;;;5110196;28;20201;-69
2023/07/20 11:19:16;;;;;;;5.88;0.90;;;21.10;94.80;;;;;;5090708;28;20195;-69
2023/07/20 11:21:45;;;;;;;3.30;0.80;;;21.20;94.80;;;;;;5109023;28;20215;-70
2023/07/20 11:24:13;;;;;;;0.73;0.73;;;21.00;94.90;;;;;;5110775;28;20196;-69
2023/07/20 11:26:47;;;;;;;0.80;0.80;;;21.00;95.10;;;;;;5110857;28;20698;-69
2023/07/20 11:29:14;;;;;;;0.95;0.70;;;21.00;95.30;;;;;;5092631;28;20242;-69
2023/07/20 11:31:44;;;;;;;1.08;0.68;;;20.90;95.30;;;;;;5111525;28;20271;-69
2023/07/20 11:34:13;;;;;;;0.60;0.60;;;20.80;95.20;;;;;;5107894;28;20196;-70
2023/07/20 11:36:42;;;;;;;0.60;0.60;;;20.90;95.30;;;;;;5110236;28;20187;-69
2023/07/20 11:39:10;;;;;;;0.50;0.50;;;20.90;95.30;;;;;;5111143;28;20283;-69
2023/07/20 11:41:37;;;;;;;0.50;0.50;;;21.00;95.40;;;;;;5110498;28;20639;-69
2023/07/20 11:44:06;;;;;;;0.40;0.40;;;21.10;95.40;;;;;;5092392;28;20204;-69
2023/07/20 11:46:33;;;;;;;0.57;0.57;;;21.20;95.40;;;;;;5092269;28;20210;-69
2023/07/20 11:49:04;;;;;;;0.60;0.60;;;21.20;95.20;;;;;;5110415;28;20196;-70
2023/07/20 11:51:32;;;;;;;0.50;0.50;;;21.30;95.10;;;;;;5105828;28;20392;-69
2023/07/20 11:54:00;;;;;;;0.40;0.40;;;21.40;94.80;;;;;;5111016;28;20294;-69
2023/07/20 11:56:27;;;;;;;0.30;0.30;;;21.40;94.50;;;;;;5088871;28;20670;-69
2023/07/20 11:58:59;;;;;;;0.50;0.50;;;21.50;94.30;;;;;;5092226;28;20199;-69
2023/07/20 12:01:28;;;;;;;0.50;0.50;;;21.60;94.20;;;;;;5094380;28;20196;-69
2023/07/20 12:03:56;;;;;;;0.47;0.43;;;21.70;94.20;;;;;;5106800;28;20203;-70
2023/07/20 12:06:26;;;;;;;0.50;0.50;;;21.80;94.10;;;;;;5103263;28;20550;-70
2023/07/20 12:08:57;;;;;;;0.63;0.57;;;21.80;93.90;;;;;;5109148;28;20203;-68
2023/07/20 12:11:35;;;;;;;0.40;0.40;;;21.80;93.60;;;;;;5090012;28;20294;-68
2023/07/20 12:14:02;;;;;;;0.30;0.30;;;21.90;93.50;;;;;;5098357;28;20230;-68
2023/07/20 12:16:31;;;;;;;0.60;0.60;;;21.90;93.30;;;;;;5108530;28;20180;-68
2023/07/20 12:19:02;;;;;;;0.52;0.52;;;22.00;93.20;;;;;;5107614;28;20211;-69
2023/07/20 12:21:31;;;;;;;0.50;0.50;;;22.10;93.10;;;;;;5099351;28;20275;-70
2023/07/20 12:23:59;;;;;;;0.60;0.60;;;22.20;92.90;;;;;;5108514;28;20198;-69
2023/07/20 12:26:27;;;;;;;0.60;0.60;;;22.20;92.50;;;;;;5102755;28;20625;-69
2023/07/20 12:28:54;;;;;;;0.47;0.47;;;22.20;92.30;;;;;;5108082;28;20222;-68
2023/07/20 12:31:22;;;;;;;0.70;0.70;;;22.20;92.30;;;;;;5104012;28;20199;-69
2023/07/20 12:33:49;;;;;;;1.77;0.70;;;22.20;92.10;;;;;;5105923;28;20249;-69
2023/07/20 12:36:16;;;;;;;1.13;0.70;;;22.20;91.80;;;;;;5102019;28;20188;-68
2023/07/20 12:38:45;;;;;;;0.60;0.60;;;22.10;91.30;;;;;;5089778;28;20294;-69
2023/07/20 12:41:14;;;;;;;0.52;0.52;;;22.10;91.20;;;;;;5087305;28;20264;-69
2023/07/20 12:43:41;;;;;;;0.70;0.70;;;22.10;91.00;;;;;;5090033;28;20215;-69
2023/07/20 12:46:08;;;;;;;0.60;0.60;;;22.20;90.90;;;;;;5106923;28;20276;-69
2023/07/20 12:48:37;;;;;;;0.60;0.60;;;22.20;90.30;;;;;;5089844;28;20630;-69
2023/07/20 12:51:05;;;;;;;0.50;0.40;;;22.20;88.70;;;;;;5103164;28;20286;-69
2023/07/20 12:53:32;;;;;;;0.52;0.52;;;22.20;88.80;;;;;;5098058;28;20256;-69